Decoded Metar for LZTT (POPRAD in SLOVAKIA) (IATA:TAT) | Meteo·Mobile Aviation Weather
aviador You're here:

LZTT Decoded Metar

POPRAD in SLOVAKIA
Report Time2018-11-19 04:30:00
UTC Time2018-11-19 05:04:47
Flight Rules vfr VFR
Wind060° at 06 kt
W.Decomp.*RWY 07: 5.8 kt HW 1.5 kt LCW
RWY 09: 5.0 kt HW 3.4 kt LCW
W.Rank060° ranks 6
Current wind is below 060° avg. (7.6)
Visibility9999 m
Phenomena:N/A
Clouds:Broken 033 Hf
Expected CloudBase > 3,600 ft AGL from Temp-Dew spread
Ceiling3,300 ft
Temp-2°C (ISA -12)
Dew Point-11°C (51% RH)
AAT-7.3°C
QNH1014 hPa
Density Alt817 ft
Elevation2,320 ft
Report Wrong Elevation
Raw Report
LZTT 190430Z 06006KT 9999 BKN033 M02/M11 Q1014=

Extra information for LZTT:More info

Metar Taf Metar & Taf Last 4 Metars F.Rules Stats Wind Profile Meteogram Temp Stats Airport Information Weather charts Add Link Nearby VenuesMetar ALERT Operation Metar Decoded Social comments